Russellville, Tennessee
Current Conditions -  °F | °C
As of 3:55 PM on Tuesday 27 Jan 2015 (Local Time) from KMOR Reporting Station
Broken Clouds Broken Clouds  
Wind Chill: 30°   Ceiling: 2100
Heat Index: 34°   Visibility: 10mi
Dew Point: 28°   Wind: 5mph
Humidity: 81%   Direction: 300°WNW
Pressure: 30"   Gusts: NA
Location:  36.26°N, 83.19°W
Report Text: KMOR 272055Z AUTO 30004KT 10SM BKN021 01/M02 A3000 RMK
Loading
Personal Weather Stations






























Interactive Weather Map New forecast layout! Learn more

10-Day Weather Forecast

Advertisements
Track Severe Weather on mobile